Time;durP1;ratioP1;P1;durP2;ratioP2;P2;SDS_P1;SDS_P2;PMS_P1;PMS_P2;Temp;Humidity;BMP_temperature;BMP_pressure;BME280_temperature;BME280_humidity;BME280_pressure;Samples;Min_cycle;Max_cycle;Signal;HPM_P1;HPM_P2
2021/12/27 00:00:39;;;;;;;12.35;8.08;;;9.90;90.80;;;;;;1905304;75;21007;-41
2021/12/27 00:03:08;;;;;;;17.15;7.85;;;9.90;90.80;;;;;;1905225;75;21028;-41
2021/12/27 00:05:38;;;;;;;10.98;7.08;;;9.80;90.90;;;;;;1905378;75;20999;-41
2021/12/27 00:08:07;;;;;;;12.90;6.40;;;9.90;90.90;;;;;;1905269;75;21091;-41
2021/12/27 00:10:36;;;;;;;14.10;7.30;;;9.90;90.80;;;;;;1905301;75;21093;-41
2021/12/27 00:13:07;;;;;;;12.78;6.62;;;9.90;91.00;;;;;;1905341;75;21023;-41
2021/12/27 00:15:36;;;;;;;11.50;6.85;;;9.80;90.80;;;;;;1905327;74;20999;-41
2021/12/27 00:18:05;;;;;;;9.93;6.42;;;9.80;90.70;;;;;;1921284;74;21027;-41
2021/12/27 00:20:35;;;;;;;11.00;7.00;;;9.80;90.80;;;;;;1924576;74;21027;-41
2021/12/27 00:23:05;;;;;;;8.30;5.97;;;9.90;90.90;;;;;;1924776;74;21031;-41
2021/12/27 00:25:34;;;;;;;9.38;6.20;;;9.90;90.80;;;;;;1924755;74;21097;-41
2021/12/27 00:28:04;;;;;;;14.85;6.62;;;9.80;90.80;;;;;;1924644;74;21108;-40
2021/12/27 00:30:34;;;;;;;13.03;6.92;;;9.80;90.80;;;;;;1924775;74;21104;-41
2021/12/27 00:33:03;;;;;;;11.33;6.47;;;9.90;90.80;;;;;;1924676;74;21088;-40
2021/12/27 00:35:32;;;;;;;12.70;8.05;;;9.90;90.80;;;;;;1924752;74;21069;-41
2021/12/27 00:38:01;;;;;;;13.15;6.97;;;9.90;90.90;;;;;;1924680;74;21108;-41
2021/12/27 00:40:31;;;;;;;10.68;7.00;;;9.90;90.80;;;;;;1924611;74;20998;-41
2021/12/27 00:43:00;;;;;;;10.35;6.50;;;9.90;90.80;;;;;;1924757;74;21104;-41
2021/12/27 00:45:29;;;;;;;8.75;6.72;;;9.90;90.90;;;;;;1924781;74;21096;-41
2021/12/27 00:47:59;;;;;;;10.13;5.12;;;9.80;90.90;;;;;;1924783;74;21087;-41
2021/12/27 00:50:29;;;;;;;13.72;6.65;;;9.90;90.90;;;;;;1924698;74;21076;-41
2021/12/27 00:52:58;;;;;;;13.50;6.78;;;9.90;90.90;;;;;;1924650;74;21099;-41
2021/12/27 00:55:28;;;;;;;12.68;7.58;;;9.90;90.80;;;;;;1924661;74;21035;-41
2021/12/27 00:57:57;;;;;;;9.78;7.60;;;10.00;91.00;;;;;;1924680;74;21026;-41
2021/12/27 01:00:27;;;;;;;11.22;7.05;;;10.00;90.90;;;;;;1924736;74;21477;-41
2021/12/27 01:02:57;;;;;;;12.40;7.12;;;10.00;90.90;;;;;;1924619;74;21026;-40
2021/12/27 01:05:27;;;;;;;13.20;7.53;;;10.00;91.10;;;;;;1924750;74;21034;-41
2021/12/27 01:07:57;;;;;;;10.80;6.72;;;10.00;91.00;;;;;;1924740;74;21030;-40
2021/12/27 01:10:59;;;;;;;11.20;6.80;;;10.00;91.20;;;;;;1924754;74;21034;-41
2021/12/27 01:18:11;;;;;;;9.25;7.05;;;10.00;91.30;;;;;;1924652;74;21124;-41
2021/12/27 01:20:40;;;;;;;10.85;7.15;;;10.00;91.20;;;;;;1924592;74;21441;-41
2021/12/27 01:23:10;;;;;;;12.58;6.62;;;10.00;91.30;;;;;;1924648;74;21043;-40
2021/12/27 01:25:40;;;;;;;12.47;7.05;;;10.00;91.30;;;;;;1924623;74;21054;-41
2021/12/27 01:28:09;;;;;;;11.85;5.85;;;10.00;91.20;;;;;;1924651;74;21088;-40
2021/12/27 01:30:47;;;;;;;6.62;4.72;;;10.00;91.30;;;;;;1924659;74;21046;-40
2021/12/27 01:33:10;;;;;;;11.10;6.33;;;10.00;91.50;;;;;;1924042;74;21055;-40
2021/12/27 01:35:40;;;;;;;8.33;6.50;;;10.00;91.40;;;;;;1924650;74;21039;-41
2021/12/27 01:38:11;;;;;;;6.78;4.00;;;10.00;91.40;;;;;;1924718;74;21034;-40
2021/12/27 01:40:42;;;;;;;6.35;4.50;;;10.00;91.50;;;;;;1924697;74;21031;-41
2021/12/27 01:43:14;;;;;;;7.87;4.35;;;9.90;90.30;;;;;;1924750;74;21088;-40
2021/12/27 01:45:52;;;;;;;4.90;4.03;;;9.70;89.10;;;;;;1924709;74;21014;-40
2021/12/27 01:48:24;;;;;;;5.40;3.12;;;9.50;89.30;;;;;;1924711;74;21092;-40
2021/12/27 01:50:55;;;;;;;4.30;3.90;;;9.20;88.80;;;;;;1924644;74;21214;-41
2021/12/27 01:53:27;;;;;;;3.27;2.80;;;8.90;89.70;;;;;;1924628;74;21030;-41
2021/12/27 01:55:57;;;;;;;2.40;1.92;;;8.70;88.70;;;;;;1924761;74;21003;-40
2021/12/27 01:58:27;;;;;;;3.33;2.20;;;8.50;88.90;;;;;;1924729;74;20999;-40
2021/12/27 02:00:59;;;;;;;2.87;2.55;;;8.20;89.00;;;;;;1924577;74;21084;-40
2021/12/27 02:03:31;;;;;;;2.62;2.05;;;8.00;89.60;;;;;;1924743;74;21034;-40
2021/12/27 02:06:01;;;;;;;5.72;3.12;;;7.80;90.00;;;;;;1924736;74;21108;-40
2021/12/27 02:08:31;;;;;;;4.70;3.30;;;7.70;90.10;;;;;;1924754;74;21023;-40
2021/12/27 02:11:00;;;;;;;5.00;3.47;;;7.60;90.20;;;;;;1924662;74;20999;-40
2021/12/27 02:13:29;;;;;;;2.40;2.20;;;7.50;90.20;;;;;;1924605;74;21022;-40
2021/12/27 02:15:58;;;;;;;2.08;1.70;;;7.40;90.10;;;;;;1924777;74;21029;-40
2021/12/27 02:18:28;;;;;;;2.75;2.15;;;7.20;90.20;;;;;;1915546;74;21051;-40
2021/12/27 02:20:58;;;;;;;4.30;2.92;;;7.10;90.20;;;;;;1905232;75;21027;-40
2021/12/27 02:23:27;;;;;;;5.53;4.95;;;7.00;90.40;;;;;;1905215;75;21082;-40
2021/12/27 02:25:56;;;;;;;2.77;1.75;;;6.90;90.40;;;;;;1905392;74;21027;-40
2021/12/27 02:28:25;;;;;;;1.72;1.57;;;6.90;90.40;;;;;;1905230;74;21035;-40
2021/12/27 02:30:55;;;;;;;3.27;2.60;;;6.80;90.40;;;;;;1905209;75;21065;-40
2021/12/27 02:33:24;;;;;;;2.47;2.00;;;6.70;90.50;;;;;;1905199;75;21152;-40
2021/12/27 02:35:56;;;;;;;2.60;1.98;;;6.70;90.50;;;;;;1905279;75;20996;-40
2021/12/27 02:38:29;;;;;;;1.27;1.15;;;6.70;90.60;;;;;;1905320;75;21109;-40
2021/12/27 02:40:59;;;;;;;8.90;7.78;;;6.60;90.50;;;;;;1905318;75;21152;-40
2021/12/27 02:43:30;;;;;;;1.70;1.52;;;6.50;90.60;;;;;;1905233;74;21023;-40
2021/12/27 02:46:01;;;;;;;1.82;1.52;;;6.50;90.50;;;;;;1905192;75;21027;-41
2021/12/27 02:48:33;;;;;;;1.90;1.70;;;6.50;90.50;;;;;;1905299;75;21027;-40
2021/12/27 02:51:03;;;;;;;1.35;1.25;;;6.50;90.40;;;;;;1905265;75;21019;-40
2021/12/27 02:53:32;;;;;;;1.80;1.62;;;6.40;90.40;;;;;;1905244;75;21027;-40
2021/12/27 02:56:02;;;;;;;1.60;1.50;;;6.40;90.40;;;;;;1905163;74;21074;-41
2021/12/27 02:58:31;;;;;;;1.70;1.60;;;6.40;90.50;;;;;;1905275;75;20997;-41
2021/12/27 03:01:09;;;;;;;1.95;1.50;;;6.40;90.50;;;;;;1905137;74;20995;-40
2021/12/27 03:03:39;;;;;;;2.42;1.72;;;6.40;90.50;;;;;;1904185;74;21502;-41
2021/12/27 03:06:09;;;;;;;2.35;1.37;;;6.30;90.40;;;;;;1905233;74;20988;-41
2021/12/27 03:08:39;;;;;;;1.67;1.57;;;6.30;90.40;;;;;;1905111;75;21024;-41
2021/12/27 03:11:10;;;;;;;3.20;1.72;;;6.30;90.50;;;;;;1905116;75;21574;-41
2021/12/27 03:13:41;;;;;;;2.33;1.00;;;6.30;90.40;;;;;;1905146;74;21015;-41
2021/12/27 03:16:13;;;;;;;1.85;1.40;;;6.20;90.50;;;;;;1905395;74;21414;-41
2021/12/27 03:18:45;;;;;;;1.30;0.98;;;6.20;90.40;;;;;;1905325;74;21059;-41
2021/12/27 03:21:15;;;;;;;1.12;1.00;;;6.10;90.50;;;;;;1905247;75;21000;-41
2021/12/27 03:23:45;;;;;;;2.15;0.80;;;6.10;90.50;;;;;;1905279;74;21031;-41
2021/12/27 03:26:18;;;;;;;0.93;0.82;;;6.10;90.40;;;;;;1905344;75;21516;-41
2021/12/27 03:28:47;;;;;;;1.30;1.20;;;6.00;90.40;;;;;;1905187;75;21089;-41
2021/12/27 03:31:19;;;;;;;1.05;0.90;;;6.00;90.40;;;;;;1905230;75;21043;-41
2021/12/27 03:33:48;;;;;;;1.32;1.00;;;6.10;90.50;;;;;;1905192;75;21047;-41
2021/12/27 03:36:23;;;;;;;1.47;1.00;;;6.00;90.40;;;;;;1905249;75;21027;-41
2021/12/27 03:38:52;;;;;;;2.33;1.05;;;6.00;90.50;;;;;;1904968;74;21031;-41
2021/12/27 03:41:22;;;;;;;0.88;0.88;;;6.10;90.50;;;;;;1905110;74;21486;-41
2021/12/27 03:43:52;;;;;;;0.70;0.68;;;6.10;90.30;;;;;;1905217;75;21106;-41
2021/12/27 03:46:21;;;;;;;1.80;0.70;;;6.00;90.10;;;;;;1905318;75;21028;-41
2021/12/27 03:48:50;;;;;;;1.20;0.88;;;6.00;90.20;;;;;;1905178;75;21020;-41
2021/12/27 03:51:20;;;;;;;0.80;0.80;;;6.00;90.20;;;;;;1905338;75;20999;-41
2021/12/27 03:53:49;;;;;;;0.70;0.70;;;6.00;90.20;;;;;;1905283;75;21020;-41
2021/12/27 03:56:23;;;;;;;1.25;1.00;;;5.90;89.80;;;;;;1905317;75;20996;-41
2021/12/27 03:58:57;;;;;;;1.85;1.35;;;5.80;90.00;;;;;;1905083;74;21552;-41
2021/12/27 04:01:26;;;;;;;0.80;0.80;;;5.80;90.20;;;;;;1905321;74;21305;-41
2021/12/27 04:03:56;;;;;;;1.70;1.57;;;5.70;89.90;;;;;;1905420;75;21097;-41
2021/12/27 04:06:27;;;;;;;1.20;1.10;;;5.70;90.20;;;;;;1905377;74;21031;-41
2021/12/27 04:08:57;;;;;;;1.55;1.30;;;5.60;90.10;;;;;;1905207;75;20999;-41
2021/12/27 04:11:27;;;;;;;1.35;1.25;;;5.60;90.30;;;;;;1905350;74;21021;-41
2021/12/27 04:13:57;;;;;;;2.45;1.70;;;5.50;90.20;;;;;;1905306;75;21023;-41
2021/12/27 04:16:26;;;;;;;1.60;1.30;;;5.50;90.30;;;;;;1905336;75;21051;-42
2021/12/27 04:18:56;;;;;;;3.55;3.25;;;5.50;90.30;;;;;;1907947;74;21082;-41
2021/12/27 04:21:25;;;;;;;3.40;2.12;;;5.40;90.30;;;;;;1924545;74;21046;-41
2021/12/27 04:23:54;;;;;;;2.75;2.17;;;5.50;90.40;;;;;;1924526;74;20995;-41
2021/12/27 04:26:24;;;;;;;2.25;2.05;;;5.50;90.40;;;;;;1924635;74;21085;-41
2021/12/27 04:28:53;;;;;;;2.27;2.02;;;5.50;90.30;;;;;;1924506;74;21077;-41
2021/12/27 04:31:22;;;;;;;4.87;2.35;;;5.50;90.30;;;;;;1924536;74;21084;-41
2021/12/27 04:33:52;;;;;;;3.90;2.80;;;5.50;90.30;;;;;;1924578;74;21109;-41
2021/12/27 04:36:22;;;;;;;4.00;3.40;;;5.50;90.30;;;;;;1924616;74;21023;-41
2021/12/27 04:38:55;;;;;;;5.03;4.25;;;5.50;90.20;;;;;;1924752;74;20999;-41
2021/12/27 04:41:23;;;;;;;5.45;4.45;;;5.50;90.30;;;;;;1923041;74;21104;-41
2021/12/27 04:43:52;;;;;;;4.80;3.45;;;5.50;90.30;;;;;;1924646;74;21078;-41
2021/12/27 04:46:22;;;;;;;6.70;5.37;;;5.50;90.20;;;;;;1924519;74;21031;-41
2021/12/27 04:48:52;;;;;;;5.50;4.30;;;5.50;90.40;;;;;;1924557;74;21108;-41
2021/12/27 04:51:21;;;;;;;5.22;4.42;;;5.50;90.40;;;;;;1924631;74;21092;-41
2021/12/27 04:53:51;;;;;;;7.40;5.40;;;5.50;90.30;;;;;;1924525;74;21077;-41
2021/12/27 04:56:21;;;;;;;5.92;4.47;;;5.50;90.10;;;;;;1924497;74;21084;-40
2021/12/27 04:58:50;;;;;;;8.20;5.22;;;5.50;90.30;;;;;;1924604;74;21080;-41
2021/12/27 05:01:20;;;;;;;7.17;5.15;;;5.50;90.40;;;;;;1924557;74;21529;-40
2021/12/27 05:03:49;;;;;;;6.87;5.03;;;5.50;90.50;;;;;;1924633;74;20991;-40
2021/12/27 05:06:19;;;;;;;5.37;4.20;;;5.50;90.50;;;;;;1924564;74;21084;-40
2021/12/27 05:08:53;;;;;;;3.87;3.02;;;5.50;90.30;;;;;;1924744;74;21022;-41
2021/12/27 05:11:19;;;;;;;3.72;3.00;;;5.40;90.30;;;;;;1923516;74;21081;-40
2021/12/27 05:13:48;;;;;;;4.65;3.37;;;5.40;90.10;;;;;;1924599;74;21023;-42
2021/12/27 05:16:17;;;;;;;3.33;2.17;;;5.40;90.20;;;;;;1924695;74;21088;-40
2021/12/27 05:18:47;;;;;;;4.47;3.00;;;5.30;90.20;;;;;;1924641;74;20999;-40
2021/12/27 05:21:17;;;;;;;4.17;2.30;;;5.30;90.30;;;;;;1924531;74;21542;-41
2021/12/27 05:23:46;;;;;;;2.98;2.52;;;5.20;90.30;;;;;;1924650;74;21187;-40
2021/12/27 05:26:15;;;;;;;5.03;3.62;;;5.20;90.50;;;;;;1924427;74;21058;-41
2021/12/27 05:28:44;;;;;;;3.40;2.85;;;5.20;90.60;;;;;;1924606;74;21038;-40
2021/12/27 05:31:14;;;;;;;2.50;2.20;;;5.30;90.50;;;;;;1924463;74;21015;-40
2021/12/27 05:33:43;;;;;;;3.37;2.90;;;5.30;90.50;;;;;;1924536;74;21023;-40
2021/12/27 05:36:13;;;;;;;4.87;3.20;;;5.30;90.40;;;;;;1924610;74;21018;-41
2021/12/27 05:38:42;;;;;;;4.72;3.40;;;5.40;90.60;;;;;;1924585;74;21073;-40
2021/12/27 05:41:11;;;;;;;3.62;2.58;;;5.40;90.50;;;;;;1924454;74;21026;-41
2021/12/27 05:43:41;;;;;;;5.28;2.77;;;5.40;90.10;;;;;;1924561;74;21026;-40
2021/12/27 05:46:11;;;;;;;3.02;2.42;;;5.40;90.20;;;;;;1924718;74;21061;-41
2021/12/27 05:48:40;;;;;;;2.95;2.22;;;5.30;90.30;;;;;;1924730;74;20994;-40
2021/12/27 05:51:09;;;;;;;5.50;2.67;;;5.40;90.40;;;;;;1924779;74;21453;-40
2021/12/27 05:53:38;;;;;;;4.47;1.82;;;5.30;89.80;;;;;;1924828;74;21058;-40
2021/12/27 05:56:08;;;;;;;2.95;2.30;;;5.30;90.20;;;;;;1924636;74;21019;-40
2021/12/27 05:58:37;;;;;;;2.25;1.60;;;5.30;90.40;;;;;;1924765;74;21084;-40
2021/12/27 06:01:06;;;;;;;1.37;1.25;;;5.30;90.20;;;;;;1924536;74;21088;-40
2021/12/27 06:03:36;;;;;;;2.10;1.62;;;5.30;90.10;;;;;;1924686;74;21007;-40
2021/12/27 06:06:05;;;;;;;2.17;1.60;;;5.20;90.30;;;;;;1924577;74;21084;-40
2021/12/27 06:08:35;;;;;;;2.30;1.90;;;5.30;90.30;;;;;;1924709;74;21026;-40
2021/12/27 06:11:04;;;;;;;3.50;2.40;;;5.20;90.00;;;;;;1924622;74;21022;-41
2021/12/27 06:13:33;;;;;;;2.08;1.70;;;5.20;90.00;;;;;;1924792;74;21092;-40
2021/12/27 06:16:02;;;;;;;2.80;2.02;;;5.20;90.10;;;;;;1924530;74;21027;-40
2021/12/27 06:18:32;;;;;;;2.00;1.67;;;5.20;90.30;;;;;;1924719;74;21026;-40
2021/12/27 06:21:01;;;;;;;1.87;1.32;;;5.20;90.30;;;;;;1924447;74;21054;-40
2021/12/27 06:23:30;;;;;;;2.10;1.45;;;5.30;90.10;;;;;;1924587;74;21050;-40
2021/12/27 06:26:00;;;;;;;1.55;1.40;;;5.20;90.10;;;;;;1924702;74;21050;-40
2021/12/27 06:28:31;;;;;;;3.10;1.70;;;5.30;90.30;;;;;;1924721;74;21089;-41
2021/12/27 06:31:01;;;;;;;1.87;1.65;;;5.30;90.40;;;;;;1924620;74;21514;-40
2021/12/27 06:33:31;;;;;;;2.17;1.65;;;5.40;90.00;;;;;;1924627;74;21096;-41
2021/12/27 06:36:01;;;;;;;4.70;2.30;;;5.40;90.10;;;;;;1924772;74;20995;-40
2021/12/27 06:38:30;;;;;;;2.37;2.12;;;5.40;90.20;;;;;;1924741;74;21023;-40
2021/12/27 06:41:00;;;;;;;2.33;1.80;;;5.40;90.10;;;;;;1924688;74;21023;-40
2021/12/27 06:43:30;;;;;;;1.55;1.40;;;5.40;89.90;;;;;;1924753;74;21523;-41
2021/12/27 06:46:01;;;;;;;3.10;1.70;;;5.30;89.20;;;;;;1924765;74;21023;-41
2021/12/27 06:48:30;;;;;;;1.25;1.15;;;5.30;89.70;;;;;;1924822;74;21100;-41
2021/12/27 06:50:59;;;;;;;2.15;1.52;;;5.20;90.00;;;;;;1924763;74;21081;-41
2021/12/27 06:53:30;;;;;;;2.12;1.90;;;5.20;90.10;;;;;;1924694;74;21048;-41
2021/12/27 06:56:00;;;;;;;4.28;1.80;;;5.20;90.30;;;;;;1924697;74;21054;-40
2021/12/27 06:58:29;;;;;;;2.12;1.92;;;5.20;90.30;;;;;;1924703;74;21023;-40
2021/12/27 07:00:59;;;;;;;2.35;1.85;;;5.30;90.40;;;;;;1924654;74;21104;-40
2021/12/27 07:03:28;;;;;;;2.92;2.00;;;5.20;89.30;;;;;;1924673;74;21011;-40
2021/12/27 07:05:58;;;;;;;2.00;1.67;;;5.20;90.00;;;;;;1924592;74;21023;-40
2021/12/27 07:08:27;;;;;;;2.77;1.65;;;5.20;90.20;;;;;;1924598;74;21093;-40
2021/12/27 07:10:57;;;;;;;2.58;1.70;;;5.20;90.20;;;;;;1924573;74;21042;-40
2021/12/27 07:13:26;;;;;;;3.60;2.42;;;5.30;90.10;;;;;;1924580;74;21018;-40
2021/12/27 07:15:55;;;;;;;3.30;2.35;;;5.30;90.20;;;;;;1924704;74;21062;-40
2021/12/27 07:18:24;;;;;;;2.50;1.90;;;5.30;90.20;;;;;;1924697;74;21019;-40
2021/12/27 07:20:55;;;;;;;2.65;2.10;;;5.40;90.00;;;;;;1920976;74;21055;-40
2021/12/27 07:23:25;;;;;;;3.00;2.15;;;5.30;89.00;;;;;;1905279;75;21085;-40
2021/12/27 07:25:54;;;;;;;2.85;2.47;;;5.20;89.90;;;;;;1905114;74;21077;-40
2021/12/27 07:28:24;;;;;;;2.22;1.30;;;5.20;90.20;;;;;;1905268;74;21047;-40
2021/12/27 07:30:53;;;;;;;2.05;1.65;;;5.20;89.70;;;;;;1905276;74;21098;-40
2021/12/27 07:33:23;;;;;;;4.30;2.33;;;5.20;90.20;;;;;;1905120;75;21089;-40
2021/12/27 07:35:52;;;;;;;5.90;3.27;;;5.20;90.20;;;;;;1905108;75;21019;-40
2021/12/27 07:38:21;;;;;;;4.78;4.25;;;5.20;90.20;;;;;;1905243;75;21430;-42
2021/12/27 07:40:50;;;;;;;2.00;1.65;;;5.20;90.00;;;;;;1903563;75;21074;-41
2021/12/27 07:43:20;;;;;;;3.98;2.55;;;5.30;90.00;;;;;;1904697;74;21028;-41
2021/12/27 09:25:54;;;;;;;2.85;2.20;;;5.00;89.90;;;;;;1958191;73;25659;-41
2021/12/27 09:28:23;;;;;;;2.42;2.17;;;5.10;90.10;;;;;;1917698;75;21050;-42
2021/12/27 09:30:52;;;;;;;2.62;2.05;;;5.10;90.00;;;;;;1917564;75;21077;-42
2021/12/27 09:33:22;;;;;;;2.05;1.80;;;5.20;90.00;;;;;;1917711;74;21085;-42
2021/12/27 09:35:52;;;;;;;2.08;1.62;;;5.20;90.00;;;;;;1917645;75;21011;-42
2021/12/27 09:38:22;;;;;;;5.47;1.90;;;5.20;89.90;;;;;;1917617;75;21030;-42
2021/12/27 09:40:51;;;;;;;34.88;19.52;;;5.20;89.80;;;;;;1917477;74;21034;-43
2021/12/27 09:43:21;;;;;;;3.90;2.67;;;5.20;90.00;;;;;;1917758;73;21023;-42
2021/12/27 09:45:50;;;;;;;2.98;2.60;;;5.20;90.10;;;;;;1917654;75;21101;-42
2021/12/27 09:48:19;;;;;;;4.58;3.50;;;5.30;90.20;;;;;;1917885;73;21078;-42
2021/12/27 09:50:51;;;;;;;3.77;3.02;;;5.30;90.10;;;;;;1917748;75;21038;-44
2021/12/27 09:53:21;;;;;;;4.00;3.00;;;5.30;90.10;;;;;;1917697;73;21018;-45
2021/12/27 09:55:51;;;;;;;4.17;2.52;;;5.40;90.20;;;;;;1917744;75;21023;-44
2021/12/27 09:58:20;;;;;;;4.28;2.65;;;5.40;90.20;;;;;;1917717;75;21011;-46
2021/12/27 10:00:50;;;;;;;11.28;7.37;;;5.50;90.30;;;;;;1917513;75;21239;-44
2021/12/27 10:03:19;;;;;;;2.85;2.20;;;5.50;90.50;;;;;;1917591;75;21002;-44
2021/12/27 10:05:49;;;;;;;2.80;2.50;;;5.60;90.10;;;;;;1917662;75;21031;-44
2021/12/27 10:08:19;;;;;;;3.05;2.30;;;5.60;90.00;;;;;;1917540;73;21066;-44
2021/12/27 10:10:48;;;;;;;2.95;2.40;;;5.50;90.10;;;;;;1917724;73;21030;-45
2021/12/27 10:13:18;;;;;;;5.03;3.10;;;5.60;90.20;;;;;;1917692;73;21078;-45
2021/12/27 10:15:49;;;;;;;3.50;2.50;;;5.60;90.20;;;;;;1917392;73;21098;-45
2021/12/27 10:18:18;;;;;;;3.35;2.60;;;5.70;90.20;;;;;;1917777;75;21082;-44
2021/12/27 10:20:48;;;;;;;2.72;1.98;;;5.70;90.10;;;;;;1917542;75;21080;-46
2021/12/27 10:23:20;;;;;;;3.00;2.70;;;5.60;90.20;;;;;;1917606;75;21055;-44
2021/12/27 10:25:51;;;;;;;3.80;2.77;;;5.70;90.30;;;;;;1922505;74;21111;-44
2021/12/27 10:28:27;;;;;;;5.30;3.35;;;5.80;90.30;;;;;;1924596;74;21038;-45
2021/12/27 10:31:02;;;;;;;3.83;3.10;;;5.80;90.30;;;;;;1924522;74;21131;-44
2021/12/27 10:33:33;;;;;;;6.55;4.95;;;5.80;90.10;;;;;;1925321;74;21027;-46
2021/12/27 10:36:03;;;;;;;3.92;3.33;;;5.80;90.10;;;;;;1924969;74;20999;-45
2021/12/27 10:38:41;;;;;;;8.05;5.10;;;5.70;90.10;;;;;;1924632;74;21014;-46
2021/12/27 10:41:10;;;;;;;6.75;4.53;;;5.70;90.20;;;;;;1922678;74;21042;-46
2021/12/27 10:43:47;;;;;;;4.67;3.17;;;5.70;90.20;;;;;;1924981;74;21027;-46
2021/12/27 10:46:19;;;;;;;4.20;3.10;;;5.70;90.20;;;;;;1923720;74;21050;-45
2021/12/27 10:49:00;;;;;;;5.28;4.47;;;5.70;89.40;;;;;;1924719;74;21080;-45
2021/12/27 10:51:30;;;;;;;4.97;3.27;;;5.60;90.00;;;;;;1924800;74;21035;-44
2021/12/27 10:54:01;;;;;;;5.55;3.72;;;5.50;90.00;;;;;;1924834;74;21030;-45
2021/12/27 10:56:33;;;;;;;5.58;3.75;;;5.50;90.00;;;;;;1924841;74;21022;-45
2021/12/27 10:59:02;;;;;;;4.22;3.58;;;5.40;90.20;;;;;;1919086;74;21039;-46
2021/12/27 11:01:32;;;;;;;5.03;3.22;;;5.40;90.30;;;;;;1924734;74;21080;-45
2021/12/27 11:04:02;;;;;;;3.50;2.85;;;5.40;90.40;;;;;;1924807;74;21019;-46
2021/12/27 11:06:36;;;;;;;3.33;2.47;;;5.50;90.40;;;;;;1924738;74;21023;-49
2021/12/27 11:09:03;;;;;;;2.62;2.40;;;5.50;90.30;;;;;;1924526;74;21441;-49
2021/12/27 11:11:32;;;;;;;4.58;3.42;;;5.50;90.30;;;;;;1924754;74;21085;-45
2021/12/27 11:14:01;;;;;;;5.25;3.15;;;5.50;90.10;;;;;;1924755;74;21018;-45
2021/12/27 11:16:31;;;;;;;3.12;2.83;;;5.40;90.20;;;;;;1924648;74;21084;-46
2021/12/27 11:19:01;;;;;;;6.20;3.85;;;5.40;90.10;;;;;;1924791;74;21027;-45
2021/12/27 11:21:48;;;;;;;4.37;3.90;;;5.40;90.20;;;;;;1924545;74;21022;-46
2021/12/27 11:24:19;;;;;;;4.95;4.22;;;5.40;90.10;;;;;;1924753;74;21096;-45
2021/12/27 11:26:50;;;;;;;4.95;4.33;;;5.30;90.30;;;;;;1924564;74;21125;-48
2021/12/27 11:29:23;;;;;;;5.40;3.83;;;5.30;90.30;;;;;;1924748;74;21019;-47
2021/12/27 11:31:55;;;;;;;5.05;3.90;;;5.40;90.60;;;;;;1924584;74;21019;-45
2021/12/27 11:34:25;;;;;;;6.42;3.60;;;5.50;90.50;;;;;;1922412;74;21096;-45
2021/12/27 11:36:57;;;;;;;4.67;3.77;;;5.60;90.50;;;;;;1924579;74;21100;-46
2021/12/27 11:39:33;;;;;;;3.98;3.37;;;5.70;90.40;;;;;;1924684;74;21445;-45
2021/12/27 11:42:11;;;;;;;3.95;2.98;;;5.60;90.20;;;;;;1924315;74;21503;-45
2021/12/27 11:44:53;;;;;;;6.22;3.58;;;5.70;90.40;;;;;;1924612;74;21022;-46
2021/12/27 11:47:30;;;;;;;3.62;3.15;;;5.70;90.40;;;;;;1924531;74;21014;-45
2021/12/27 11:50:07;;;;;;;4.37;3.30;;;5.80;90.20;;;;;;1924566;74;21019;-45
2021/12/27 11:52:42;;;;;;;3.72;3.00;;;5.70;90.30;;;;;;1924646;74;21058;-44
2021/12/27 11:55:12;;;;;;;3.43;2.83;;;5.80;90.50;;;;;;1924845;74;21019;-45
2021/12/27 11:57:47;;;;;;;5.50;3.45;;;5.70;90.20;;;;;;1924623;74;21426;-45
2021/12/27 12:00:26;;;;;;;4.50;3.12;;;5.80;90.40;;;;;;1924511;74;21038;-45
2021/12/27 12:02:58;;;;;;;5.75;3.20;;;5.80;90.50;;;;;;1924628;74;21101;-45
2021/12/27 12:05:47;;;;;;;6.33;3.55;;;5.70;90.20;;;;;;1923295;74;21034;-44
2021/12/27 12:08:31;;;;;;;5.17;3.40;;;5.80;90.20;;;;;;1924519;74;21159;-45
2021/12/27 12:11:02;;;;;;;5.60;3.87;;;5.70;90.30;;;;;;1923042;74;21461;-46
2021/12/27 12:13:43;;;;;;;4.35;3.30;;;5.70;90.40;;;;;;1923988;74;20994;-45
2021/12/27 12:16:14;;;;;;;6.25;3.60;;;5.70;90.50;;;;;;1924518;74;21113;-45
2021/12/27 12:18:55;;;;;;;4.10;3.58;;;5.70;90.30;;;;;;1923304;74;21540;-45
2021/12/27 12:21:36;;;;;;;4.15;3.20;;;5.70;90.40;;;;;;1924494;74;20991;-46
2021/12/27 12:24:09;;;;;;;5.62;4.03;;;5.70;90.30;;;;;;1924682;74;21114;-45
2021/12/27 12:27:02;;;;;;;5.58;3.62;;;5.60;90.40;;;;;;1912670;74;21117;-45
2021/12/27 12:29:43;;;;;;;3.72;2.80;;;5.60;90.40;;;;;;1905217;75;21023;-45
2021/12/27 12:32:15;;;;;;;4.45;3.35;;;5.50;90.50;;;;;;1904823;74;21527;-45
2021/12/27 12:34:44;;;;;;;7.75;4.50;;;5.50;90.40;;;;;;1905306;75;20999;-45
2021/12/27 12:37:16;;;;;;;8.40;4.53;;;5.50;90.50;;;;;;1905277;74;21015;-45
2021/12/27 12:39:49;;;;;;;5.78;3.58;;;5.50;90.40;;;;;;1905285;74;21038;-45
2021/12/27 12:42:21;;;;;;;5.67;3.75;;;5.40;90.30;;;;;;1905073;74;21101;-45
2021/12/27 12:45:04;;;;;;;6.65;3.85;;;5.40;90.30;;;;;;1905308;75;21133;-46
2021/12/27 12:47:35;;;;;;;5.15;3.42;;;5.40;90.40;;;;;;1904447;74;21023;-47
2021/12/27 12:50:03;;;;;;;4.33;3.02;;;5.40;90.50;;;;;;1904562;74;21043;-44
2021/12/27 12:52:32;;;;;;;5.05;2.72;;;5.30;90.50;;;;;;1905330;74;21442;-45
2021/12/27 12:55:02;;;;;;;4.50;3.25;;;5.30;90.60;;;;;;1905122;75;20999;-44
2021/12/27 12:57:31;;;;;;;5.17;3.83;;;5.30;90.70;;;;;;1905315;75;21406;-48
2021/12/27 13:00:01;;;;;;;6.62;3.30;;;5.30;90.60;;;;;;1905072;75;21023;-45
2021/12/27 13:02:34;;;;;;;4.67;2.95;;;5.30;90.60;;;;;;1905107;75;21031;-46
2021/12/27 13:05:08;;;;;;;3.27;2.52;;;5.30;90.60;;;;;;1905291;75;21031;-44
2021/12/27 13:07:49;;;;;;;4.42;2.92;;;5.30;90.80;;;;;;1905438;75;21059;-45
2021/12/27 13:10:33;;;;;;;2.83;2.12;;;5.40;90.80;;;;;;1905247;75;21144;-45
2021/12/27 13:13:14;;;;;;;2.65;2.30;;;5.40;90.80;;;;;;1905253;75;21039;-44
2021/12/27 13:15:52;;;;;;;2.75;2.25;;;5.40;90.30;;;;;;1905221;74;21110;-44
2021/12/27 13:18:23;;;;;;;2.80;2.42;;;5.30;90.30;;;;;;1903751;75;21019;-43
2021/12/27 13:20:58;;;;;;;3.58;3.08;;;5.30;90.50;;;;;;1905072;75;21019;-45
2021/12/27 13:23:29;;;;;;;18.75;11.05;;;5.20;90.60;;;;;;1904285;74;21086;-45
2021/12/27 13:26:02;;;;;;;10.65;3.67;;;5.20;90.70;;;;;;1905041;74;21137;-44
2021/12/27 13:28:34;;;;;;;6.25;4.08;;;5.20;90.70;;;;;;1905189;74;21082;-45
2021/12/27 13:31:08;;;;;;;3.75;2.40;;;5.20;90.90;;;;;;1905169;74;21012;-45
2021/12/27 13:33:52;;;;;;;4.90;3.95;;;5.20;90.50;;;;;;1905276;75;21078;-44
2021/12/27 13:36:27;;;;;;;7.15;3.55;;;5.10;90.50;;;;;;1905141;75;21571;-45
2021/12/27 13:39:16;;;;;;;5.15;3.40;;;5.10;90.50;;;;;;1905375;75;21019;-44
2021/12/27 13:41:52;;;;;;;4.95;3.20;;;5.00;90.70;;;;;;1905194;74;21047;-45
2021/12/27 13:44:30;;;;;;;7.53;4.22;;;5.00;90.70;;;;;;1905233;75;21519;-45
2021/12/27 13:47:07;;;;;;;6.03;3.83;;;5.00;90.90;;;;;;1905283;75;21093;-45
2021/12/27 13:49:38;;;;;;;5.67;3.33;;;5.00;90.90;;;;;;1905173;75;21081;-48
2021/12/27 13:52:17;;;;;;;3.98;2.87;;;5.10;90.80;;;;;;1905245;75;21051;-45
2021/12/27 13:54:48;;;;;;;8.60;7.17;;;5.10;90.80;;;;;;1904771;74;21047;-45
2021/12/27 13:57:18;;;;;;;9.25;6.17;;;5.00;90.70;;;;;;1905312;75;21046;-45
2021/12/27 13:59:53;;;;;;;3.25;2.58;;;5.10;90.80;;;;;;1905132;75;21296;-45
2021/12/27 14:02:19;;;;;;;4.28;3.30;;;5.10;90.80;;;;;;1903850;74;21059;-47
2021/12/27 14:04:59;;;;;;;4.37;3.42;;;5.10;90.70;;;;;;1905172;75;21055;-44
2021/12/27 14:07:28;;;;;;;5.75;3.20;;;5.10;90.50;;;;;;1905127;75;21023;-44
2021/12/27 14:09:58;;;;;;;3.98;3.00;;;5.00;90.60;;;;;;1905086;74;21180;-46
2021/12/27 14:12:30;;;;;;;5.00;3.58;;;5.00;90.60;;;;;;1905319;75;21532;-45
2021/12/27 14:15:03;;;;;;;5.40;3.90;;;5.00;90.50;;;;;;1905193;74;21051;-44
2021/12/27 14:17:33;;;;;;;3.65;2.83;;;5.00;90.70;;;;;;1905463;75;21085;-45
2021/12/27 14:20:07;;;;;;;4.08;3.22;;;4.90;90.50;;;;;;1905161;75;21008;-45
2021/12/27 14:22:41;;;;;;;4.08;3.10;;;4.90;90.60;;;;;;1905646;75;21016;-45
2021/12/27 14:25:13;;;;;;;4.47;4.08;;;4.90;90.70;;;;;;1905431;74;21079;-44
2021/12/27 14:27:47;;;;;;;2.58;2.37;;;4.90;90.70;;;;;;1915284;74;21570;-44
2021/12/27 14:30:22;;;;;;;3.25;2.42;;;4.80;90.30;;;;;;1924863;74;21124;-46
2021/12/27 14:32:57;;;;;;;8.33;3.10;;;4.70;90.40;;;;;;1924844;74;21519;-45
2021/12/27 14:35:49;;;;;;;5.97;3.65;;;4.60;90.70;;;;;;1924892;74;21460;-45
2021/12/27 14:38:24;;;;;;;5.50;3.67;;;4.60;90.80;;;;;;1924733;74;21019;-45
2021/12/27 14:40:56;;;;;;;7.03;3.83;;;4.70;91.00;;;;;;1924690;74;21027;-45
2021/12/27 14:43:27;;;;;;;5.97;4.22;;;4.70;90.90;;;;;;1924800;74;21375;-45
2021/12/27 14:45:57;;;;;;;6.65;5.28;;;4.80;91.10;;;;;;1924718;74;21027;-46
2021/12/27 14:48:27;;;;;;;7.35;4.62;;;4.80;90.80;;;;;;1924644;74;21100;-45
2021/12/27 14:50:57;;;;;;;7.28;4.37;;;4.80;90.60;;;;;;1924584;74;21027;-45
2021/12/27 14:53:27;;;;;;;6.30;4.85;;;4.80;90.60;;;;;;1924781;74;21030;-45
2021/12/27 14:55:58;;;;;;;6.12;4.30;;;4.70;90.50;;;;;;1924730;74;21011;-45
2021/12/27 14:58:27;;;;;;;8.55;4.80;;;4.70;90.60;;;;;;1924697;74;21042;-45
2021/12/27 15:00:58;;;;;;;13.15;5.70;;;4.70;90.70;;;;;;1924599;74;21073;-46